Time;durP1;ratioP1;P1;durP2;ratioP2;P2;SDS_P1;SDS_P2;PMS_P1;PMS_P2;Temp;Humidity;BMP_temperature;BMP_pressure;BME280_temperature;BME280_humidity;BME280_pressure;Samples;Min_cycle;Max_cycle;Signal;HPM_P1;HPM_P2
2021/12/19 00:03:57;;;;;;;4.78;2.70;;;;;;;;;;4874885;29;20505;-86
2021/12/19 00:09:08;;;;;;;18.38;3.97;;;;;;;;;;4875321;29;20044;-86
2021/12/19 00:11:35;;;;;;;11.98;4.00;;;;;;;;;;4858188;29;20096;-84
2021/12/19 00:14:01;;;;;;;16.52;4.47;;;;;;;;;;4872738;29;20033;-86
2021/12/19 00:16:27;;;;;;;16.27;5.57;;;;;;;;;;4874218;29;20101;-86
2021/12/19 00:18:53;;;;;;;20.17;5.38;;;;;;;;;;4858340;29;20120;-85
2021/12/19 00:21:20;;;;;;;15.93;4.57;;;;;;;;;;4874825;29;20510;-86
2021/12/19 00:23:47;;;;;;;15.88;5.10;;;;;;;;;;4859678;29;20043;-85
2021/12/19 00:26:13;;;;;;;14.43;4.97;;;;;;;;;;4854241;29;20052;-86
2021/12/19 00:28:40;;;;;;;13.80;4.55;;;;;;;;;;4867344;29;20033;-86
2021/12/19 00:31:06;;;;;;;19.60;7.20;;;;;;;;;;4869974;29;20093;-86
2021/12/19 00:33:32;;;;;;;8.23;4.20;;;;;;;;;;4854146;29;20044;-86
2021/12/19 00:35:59;;;;;;;7.30;3.13;;;;;;;;;;4869107;29;20371;-85
2021/12/19 00:38:26;;;;;;;16.48;4.82;;;;;;;;;;4854091;29;20029;-84
2021/12/19 00:40:52;;;;;;;18.60;5.43;;;;;;;;;;4854986;29;20043;-84
2021/12/19 00:43:34;;;;;;;10.20;3.67;;;;;;;;;;4851706;29;20043;-87
2021/12/19 00:46:07;;;;;;;17.30;3.17;;;;;;;;;;4857979;29;20032;-86
2021/12/19 00:48:34;;;;;;;14.88;4.60;;;;;;;;;;4858284;29;20025;-87
2021/12/19 00:51:00;;;;;;;7.10;2.83;;;;;;;;;;4873140;29;20025;-86
2021/12/19 00:53:26;;;;;;;9.02;3.30;;;;;;;;;;4855323;29;20474;-85
2021/12/19 00:55:53;;;;;;;2.75;1.00;;;;;;;;;;4841643;29;20064;-85
2021/12/19 00:58:19;;;;;;;9.65;2.00;;;;;;;;;;4835585;29;20931;-87
2021/12/19 01:00:45;;;;;;;4.70;1.50;;;;;;;;;;4851520;29;20041;-87
2021/12/19 01:03:11;;;;;;;3.47;0.68;;;;;;;;;;4832772;29;20052;-87
2021/12/19 01:05:38;;;;;;;4.50;0.57;;;;;;;;;;4838466;29;20496;-86
2021/12/19 01:08:05;;;;;;;8.13;0.80;;;;;;;;;;4836345;29;20486;-86
2021/12/19 01:10:31;;;;;;;2.75;0.68;;;;;;;;;;4851673;29;20033;-85
2021/12/19 01:12:57;;;;;;;2.30;0.57;;;;;;;;;;4833352;29;20073;-85
2021/12/19 01:15:23;;;;;;;0.90;0.40;;;;;;;;;;4852220;29;20029;-86
2021/12/19 01:17:50;;;;;;;5.88;0.47;;;;;;;;;;4840938;29;20128;-86
2021/12/19 01:20:20;;;;;;;1.98;0.60;;;;;;;;;;4850149;29;20098;-86
2021/12/19 01:22:47;;;;;;;0.60;0.30;;;;;;;;;;4836163;29;20132;-85
2021/12/19 01:25:13;;;;;;;0.90;0.52;;;;;;;;;;4837450;29;20051;-86
2021/12/19 01:27:39;;;;;;;0.88;0.50;;;;;;;;;;4837959;29;20438;-86
2021/12/19 01:30:06;;;;;;;0.32;0.32;;;;;;;;;;4833864;29;20033;-86
2021/12/19 01:32:33;;;;;;;2.65;1.00;;;;;;;;;;4832499;29;20405;-86
2021/12/19 01:34:59;;;;;;;1.33;0.73;;;;;;;;;;4837679;29;20029;-86
2021/12/19 01:37:25;;;;;;;6.07;0.80;;;;;;;;;;4837025;29;20025;-84
2021/12/19 01:39:51;;;;;;;1.10;0.73;;;;;;;;;;4852448;29;20073;-86
2021/12/19 01:42:19;;;;;;;2.35;0.57;;;;;;;;;;4848177;29;20070;-86
2021/12/19 01:44:46;;;;;;;2.75;0.82;;;;;;;;;;4851867;29;20162;-86
2021/12/19 01:47:13;;;;;;;3.63;0.90;;;;;;;;;;4831674;29;20085;-84
2021/12/19 01:49:39;;;;;;;11.95;1.40;;;;;;;;;;4853092;29;20034;-86
2021/12/19 01:52:05;;;;;;;8.10;1.20;;;;;;;;;;4849964;29;20561;-86
2021/12/19 01:54:31;;;;;;;8.70;0.85;;;;;;;;;;4856196;29;20805;-86
2021/12/19 01:56:57;;;;;;;1.63;0.80;;;;;;;;;;4866124;29;20033;-86
2021/12/19 01:59:23;;;;;;;4.88;0.70;;;;;;;;;;4856251;29;20041;-85
2021/12/19 02:01:51;;;;;;;4.15;0.70;;;;;;;;;;4862981;29;20044;-86
2021/12/19 02:04:17;;;;;;;3.78;0.70;;;;;;;;;;4867794;29;20036;-86
2021/12/19 02:06:43;;;;;;;2.22;0.90;;;;;;;;;;4865703;29;20097;-85
2021/12/19 02:09:10;;;;;;;5.95;0.93;;;;;;;;;;4866253;29;20041;-85
2021/12/19 02:11:37;;;;;;;3.03;0.50;;;;;;;;;;4857068;29;20025;-86
2021/12/19 02:14:04;;;;;;;3.50;0.35;;;;;;;;;;4867816;29;20056;-86
2021/12/19 02:16:30;;;;;;;1.13;0.50;;;;;;;;;;4856834;29;20048;-86
2021/12/19 02:18:57;;;;;;;1.60;0.60;;;;;;;;;;4870010;29;20021;-86
2021/12/19 02:21:23;;;;;;;1.13;0.45;;;;;;;;;;4866374;29;20478;-86
2021/12/19 02:23:49;;;;;;;2.08;0.65;;;;;;;;;;4857501;29;20725;-86
2021/12/19 02:26:16;;;;;;;2.92;0.80;;;;;;;;;;4854263;29;20481;-85
2021/12/19 02:28:42;;;;;;;3.88;0.50;;;;;;;;;;4870001;29;20037;-86
2021/12/19 02:31:08;;;;;;;4.30;0.70;;;;;;;;;;4870162;29;20459;-85
2021/12/19 02:33:39;;;;;;;1.23;0.63;;;;;;;;;;4870406;29;20025;-86
2021/12/19 02:36:41;;;;;;;6.93;1.00;;;;;;;;;;4858298;29;20040;-84
2021/12/19 02:49:50;;;;;;;7.00;0.70;;;;;;;;;;4872135;29;20185;-86
2021/12/19 02:52:16;;;;;;;1.65;0.55;;;;;;;;;;4872810;29;20116;-85
2021/12/19 02:54:43;;;;;;;3.38;0.60;;;;;;;;;;4875623;29;20053;-86
2021/12/19 02:57:10;;;;;;;3.00;0.80;;;;;;;;;;4871446;29;20025;-85
2021/12/19 02:59:36;;;;;;;4.53;1.00;;;;;;;;;;4872854;29;20044;-86
2021/12/19 03:02:02;;;;;;;1.10;0.70;;;;;;;;;;4869916;29;21979;-85
2021/12/19 03:04:29;;;;;;;3.08;0.82;;;;;;;;;;4860030;29;20057;-86
2021/12/19 03:06:55;;;;;;;3.88;0.70;;;;;;;;;;4872896;29;20509;-86
2021/12/19 03:09:42;;;;;;;3.30;0.47;;;;;;;;;;4859434;29;20041;-85
2021/12/19 03:20:19;;;;;;;8.32;1.27;;;;;;;;;;4873188;29;20048;-86
2021/12/19 03:22:45;;;;;;;5.32;2.10;;;;;;;;;;4863593;29;20037;-85
2021/12/19 03:25:11;;;;;;;8.75;0.70;;;;;;;;;;4857152;29;20060;-85
2021/12/19 03:27:37;;;;;;;3.95;0.95;;;;;;;;;;4870603;29;20075;-85
2021/12/19 03:30:04;;;;;;;5.00;0.80;;;;;;;;;;4871884;29;20035;-85
2021/12/19 03:32:31;;;;;;;3.25;0.68;;;;;;;;;;4857399;29;20037;-84
2021/12/19 03:34:57;;;;;;;8.70;1.00;;;;;;;;;;4855471;29;20120;-84
2021/12/19 03:37:24;;;;;;;3.35;1.00;;;;;;;;;;4858447;29;20131;-84
2021/12/19 03:40:07;;;;;;;5.63;0.77;;;;;;;;;;4858110;29;20025;-85
2021/12/19 03:42:33;;;;;;;2.53;0.70;;;;;;;;;;4856356;29;20025;-85
2021/12/19 03:44:59;;;;;;;0.68;0.50;;;;;;;;;;4873126;29;20112;-85
2021/12/19 03:47:25;;;;;;;0.45;0.30;;;;;;;;;;4854802;29;20125;-84
2021/12/19 03:49:51;;;;;;;1.45;0.65;;;;;;;;;;4869179;29;20061;-84
2021/12/19 03:52:17;;;;;;;5.47;0.47;;;;;;;;;;4860203;29;20021;-85
2021/12/19 03:54:43;;;;;;;4.40;0.77;;;;;;;;;;4855601;29;20057;-84
2021/12/19 03:57:10;;;;;;;3.47;0.73;;;;;;;;;;4854679;29;20056;-85
2021/12/19 03:59:36;;;;;;;5.55;1.23;;;;;;;;;;4867629;29;20344;-85
2021/12/19 04:02:02;;;;;;;3.63;0.90;;;;;;;;;;4872183;29;20143;-85
2021/12/19 04:04:31;;;;;;;6.22;1.65;;;;;;;;;;4870614;29;20096;-85
2021/12/19 04:06:57;;;;;;;12.70;2.60;;;;;;;;;;4875037;29;20029;-85
2021/12/19 04:09:23;;;;;;;7.68;2.20;;;;;;;;;;4852807;29;20130;-86
2021/12/19 04:11:52;;;;;;;7.97;1.90;;;;;;;;;;4871757;29;20032;-85
2021/12/19 04:14:18;;;;;;;15.45;2.42;;;;;;;;;;4857147;29;20033;-85
2021/12/19 04:16:44;;;;;;;11.25;1.63;;;;;;;;;;4858289;29;20508;-84
2021/12/19 04:19:10;;;;;;;12.40;2.38;;;;;;;;;;4856221;29;20045;-85
2021/12/19 04:21:36;;;;;;;20.80;3.53;;;;;;;;;;4855435;29;20687;-85
2021/12/19 04:24:03;;;;;;;10.23;2.65;;;;;;;;;;4856186;29;20120;-85
2021/12/19 04:26:29;;;;;;;12.60;2.72;;;;;;;;;;4853350;29;20668;-86
2021/12/19 04:28:55;;;;;;;18.60;3.30;;;;;;;;;;4857201;29;20893;-86
2021/12/19 04:31:21;;;;;;;22.13;4.07;;;;;;;;;;4870559;29;20552;-86
2021/12/19 04:33:47;;;;;;;24.98;4.22;;;;;;;;;;4871081;29;20065;-85
2021/12/19 04:36:21;;;;;;;38.35;4.47;;;;;;;;;;4847886;29;20029;-85
2021/12/19 04:56:16;;;;;;;28.10;6.55;;;;;;;;;;4871376;29;20113;-86
2021/12/19 04:58:18;;;;;;;32.30;7.60;;;;;;;;;;4855459;29;20029;-85
2021/12/19 05:01:01;;;;;;;21.67;5.32;;;;;;;;;;4859851;29;20024;-86
2021/12/19 05:03:49;;;;;;;29.15;6.63;;;;;;;;;;4855947;29;20021;-86
2021/12/19 05:06:51;;;;;;;26.17;6.10;;;;;;;;;;4854946;29;20111;-85
2021/12/19 05:14:51;;;;;;;40.42;6.20;;;;;;;;;;4870799;29;20040;-86
2021/12/19 05:17:23;;;;;;;27.65;5.55;;;;;;;;;;4868288;29;20032;-85
2021/12/19 05:20:07;;;;;;;25.08;6.57;;;;;;;;;;4869393;29;20029;-85
2021/12/19 05:22:38;;;;;;;28.75;6.95;;;;;;;;;;4859315;29;20024;-86
2021/12/19 05:25:14;;;;;;;41.85;9.43;;;;;;;;;;4852734;29;20068;-85
2021/12/19 05:27:44;;;;;;;34.70;8.15;;;;;;;;;;4853731;29;20044;-84
2021/12/19 05:30:12;;;;;;;32.08;7.25;;;;;;;;;;4857492;29;20049;-86
2021/12/19 05:32:45;;;;;;;30.13;8.52;;;;;;;;;;4852580;29;20029;-85
2021/12/19 05:35:13;;;;;;;32.30;7.47;;;;;;;;;;4869926;29;20490;-84
2021/12/19 05:45:54;;;;;;;29.30;7.53;;;;;;;;;;4870229;29;20047;-85
2021/12/19 05:48:20;;;;;;;34.63;7.43;;;;;;;;;;4869222;29;20029;-85
2021/12/19 05:50:46;;;;;;;29.15;6.57;;;;;;;;;;4868309;29;20457;-84
2021/12/19 05:53:12;;;;;;;32.45;7.38;;;;;;;;;;4855772;29;20070;-85
2021/12/19 05:55:45;;;;;;;27.85;6.05;;;;;;;;;;4845079;29;20049;-85
2021/12/19 05:58:11;;;;;;;24.60;4.80;;;;;;;;;;4844575;29;20037;-85
2021/12/19 06:00:37;;;;;;;38.85;6.38;;;;;;;;;;4850019;29;20045;-85
2021/12/19 06:03:04;;;;;;;24.52;4.97;;;;;;;;;;4849753;29;20034;-85
2021/12/19 06:05:30;;;;;;;24.15;6.85;;;;;;;;;;4836227;29;20042;-86
2021/12/19 06:07:56;;;;;;;31.30;5.53;;;;;;;;;;4850262;29;20033;-84
2021/12/19 06:10:22;;;;;;;22.15;5.28;;;;;;;;;;4836733;29;20073;-85
2021/12/19 06:12:49;;;;;;;24.73;5.68;;;;;;;;;;4836332;29;20114;-85
2021/12/19 06:15:15;;;;;;;34.65;7.38;;;;;;;;;;4834163;29;20042;-84
2021/12/19 06:17:44;;;;;;;28.90;6.88;;;;;;;;;;4838394;29;20037;-85
2021/12/19 06:20:10;;;;;;;25.83;5.50;;;;;;;;;;4832619;29;20037;-84
2021/12/19 06:22:36;;;;;;;37.30;7.47;;;;;;;;;;4849420;29;20029;-85
2021/12/19 06:25:03;;;;;;;28.02;6.90;;;;;;;;;;4834011;29;20041;-84
2021/12/19 06:27:29;;;;;;;27.27;6.53;;;;;;;;;;4851068;29;20049;-85
2021/12/19 06:29:55;;;;;;;35.08;5.68;;;;;;;;;;4836994;29;20115;-85
2021/12/19 06:32:21;;;;;;;22.85;5.85;;;;;;;;;;4839527;29;20033;-84
2021/12/19 06:34:47;;;;;;;29.02;6.50;;;;;;;;;;4845229;29;20037;-84
2021/12/19 06:37:13;;;;;;;32.75;5.65;;;;;;;;;;4847727;29;20021;-86
2021/12/19 06:39:40;;;;;;;18.65;5.20;;;;;;;;;;4832876;29;20046;-85
2021/12/19 06:42:07;;;;;;;30.35;4.95;;;;;;;;;;4835739;29;20034;-86
2021/12/19 06:44:33;;;;;;;23.08;4.20;;;;;;;;;;4836148;29;20697;-85
2021/12/19 06:47:00;;;;;;;8.32;2.22;;;;;;;;;;4846634;29;20044;-84
2021/12/19 06:49:26;;;;;;;21.15;3.75;;;;;;;;;;4829630;29;20420;-85
2021/12/19 06:51:52;;;;;;;16.60;3.70;;;;;;;;;;4828009;29;20039;-85
2021/12/19 06:54:18;;;;;;;15.35;3.50;;;;;;;;;;4845755;29;20494;-85
2021/12/19 06:56:44;;;;;;;21.40;4.03;;;;;;;;;;4847223;29;20111;-85
2021/12/19 06:59:10;;;;;;;23.27;3.42;;;;;;;;;;4849372;29;20029;-85
2021/12/19 07:01:37;;;;;;;22.58;3.88;;;;;;;;;;4836456;29;20399;-85
2021/12/19 07:04:03;;;;;;;19.58;3.63;;;;;;;;;;4833010;29;20407;-86
2021/12/19 07:06:29;;;;;;;12.02;2.50;;;;;;;;;;4849586;29;21003;-85
2021/12/19 07:08:55;;;;;;;19.02;3.67;;;;;;;;;;4832887;29;20141;-85
2021/12/19 07:11:21;;;;;;;14.82;3.05;;;;;;;;;;4849242;29;20030;-85
2021/12/19 07:13:47;;;;;;;19.38;3.97;;;;;;;;;;4834810;29;20043;-84
2021/12/19 07:16:13;;;;;;;29.48;3.50;;;;;;;;;;4836853;29;20518;-85
2021/12/19 07:18:40;;;;;;;42.72;4.90;;;;;;;;;;4833711;29;20034;-85
2021/12/19 07:21:06;;;;;;;26.23;3.90;;;;;;;;;;4834848;29;20368;-85
2021/12/19 07:23:32;;;;;;;16.58;4.05;;;;;;;;;;4840235;29;20654;-85
2021/12/19 07:25:59;;;;;;;20.65;3.60;;;;;;;;;;4853862;29;20581;-85
2021/12/19 07:28:25;;;;;;;31.25;3.95;;;;;;;;;;4849080;29;20474;-85
2021/12/19 07:30:52;;;;;;;29.30;4.10;;;;;;;;;;4853021;29;20124;-84
2021/12/19 07:33:18;;;;;;;19.38;4.22;;;;;;;;;;4838285;29;20026;-85
2021/12/19 07:35:47;;;;;;;18.05;4.20;;;;;;;;;;4834900;29;20519;-85
2021/12/19 07:38:25;;;;;;;30.83;3.45;;;;;;;;;;4852168;29;20033;-85
2021/12/19 07:40:54;;;;;;;25.27;4.22;;;;;;;;;;4838743;29;20656;-86
2021/12/19 07:43:20;;;;;;;18.42;3.75;;;;;;;;;;4837281;29;20057;-85
2021/12/19 07:45:46;;;;;;;25.92;3.67;;;;;;;;;;4841751;29;20068;-85
2021/12/19 07:48:12;;;;;;;20.05;4.18;;;;;;;;;;4834330;29;20034;-86
2021/12/19 07:50:39;;;;;;;30.52;4.68;;;;;;;;;;4836957;29;20040;-85
2021/12/19 07:53:05;;;;;;;26.98;4.20;;;;;;;;;;4850202;29;20047;-85
2021/12/19 07:55:31;;;;;;;25.50;3.72;;;;;;;;;;4861627;29;20061;-85
2021/12/19 07:57:57;;;;;;;35.88;5.07;;;;;;;;;;4858397;29;20494;-85
2021/12/19 08:00:24;;;;;;;17.92;3.45;;;;;;;;;;4866777;29;20371;-85
2021/12/19 08:02:51;;;;;;;26.75;4.65;;;;;;;;;;4859950;29;20033;-85
2021/12/19 08:05:18;;;;;;;25.35;3.90;;;;;;;;;;4872496;29;20041;-84
2021/12/19 08:07:47;;;;;;;24.02;4.00;;;;;;;;;;4872328;29;20100;-85
2021/12/19 08:11:39;;;;;;;27.58;3.53;;;;;;;;;;4872495;29;20230;-86
2021/12/19 08:13:00;;;;;;;31.35;4.15;;;;;;;;;;4871035;29;20037;-86
2021/12/19 08:15:26;;;;;;;9.75;2.17;;;;;;;;;;4870561;29;20799;-85
2021/12/19 08:17:52;;;;;;;20.88;4.25;;;;;;;;;;4854607;29;20553;-85
2021/12/19 08:20:18;;;;;;;19.17;2.78;;;;;;;;;;4875203;29;20817;-83
2021/12/19 08:22:47;;;;;;;26.73;3.00;;;;;;;;;;4873293;29;20045;-85
2021/12/19 08:25:13;;;;;;;24.80;3.10;;;;;;;;;;4868474;29;20029;-84
2021/12/19 08:27:39;;;;;;;22.75;3.00;;;;;;;;;;4855867;29;20454;-85
2021/12/19 08:30:08;;;;;;;7.78;3.00;;;;;;;;;;4872324;29;20068;-84
2021/12/19 08:32:34;;;;;;;12.23;3.22;;;;;;;;;;4866474;29;20044;-85
2021/12/19 08:35:00;;;;;;;22.05;3.50;;;;;;;;;;4853772;29;20733;-83
2021/12/19 08:37:26;;;;;;;27.48;3.58;;;;;;;;;;4852426;29;20058;-85
2021/12/19 08:39:52;;;;;;;16.80;3.30;;;;;;;;;;4849417;29;20320;-84
2021/12/19 08:42:18;;;;;;;19.63;2.75;;;;;;;;;;4854537;29;20021;-85
2021/12/19 08:44:45;;;;;;;21.08;3.35;;;;;;;;;;4856847;29;20097;-84
2021/12/19 08:47:11;;;;;;;26.48;4.15;;;;;;;;;;4852663;29;20053;-85
2021/12/19 08:49:39;;;;;;;15.20;3.42;;;;;;;;;;4865970;29;20055;-84
2021/12/19 08:52:06;;;;;;;25.73;3.95;;;;;;;;;;4850897;29;20040;-85
2021/12/19 08:54:32;;;;;;;23.23;3.40;;;;;;;;;;4867025;29;20041;-85
2021/12/19 08:57:05;;;;;;;17.42;3.67;;;;;;;;;;4851518;29;20068;-85
2021/12/19 08:59:31;;;;;;;12.63;3.40;;;;;;;;;;4854170;29;20049;-86
2021/12/19 09:02:00;;;;;;;27.75;4.15;;;;;;;;;;4863961;29;20541;-84
2021/12/19 09:04:26;;;;;;;32.83;3.72;;;;;;;;;;4865457;29;20025;-85
2021/12/19 09:06:52;;;;;;;16.52;3.28;;;;;;;;;;4852460;29;20041;-84
2021/12/19 09:09:18;;;;;;;25.73;3.90;;;;;;;;;;4849092;29;20029;-85
2021/12/19 09:11:45;;;;;;;20.60;3.33;;;;;;;;;;4867169;29;20592;-85
2021/12/19 09:14:11;;;;;;;32.22;3.65;;;;;;;;;;4869718;29;20041;-85
2021/12/19 09:16:37;;;;;;;23.48;3.20;;;;;;;;;;4853175;29;20486;-84
2021/12/19 09:19:03;;;;;;;31.20;3.60;;;;;;;;;;4844924;29;20049;-84
2021/12/19 09:21:29;;;;;;;15.93;3.33;;;;;;;;;;4849588;29;20409;-84
2021/12/19 09:23:55;;;;;;;24.60;3.75;;;;;;;;;;4851042;29;20045;-84
2021/12/19 09:26:21;;;;;;;12.45;2.45;;;;;;;;;;4865044;29;20033;-85
2021/12/19 09:28:47;;;;;;;24.35;3.10;;;;;;;;;;4865484;29;20033;-85
2021/12/19 09:31:13;;;;;;;28.20;3.90;;;;;;;;;;4853678;29;20698;-85
2021/12/19 09:33:39;;;;;;;27.10;3.60;;;;;;;;;;4854768;29;21366;-84
2021/12/19 09:36:05;;;;;;;26.10;3.45;;;;;;;;;;4867683;29;20048;-85
2021/12/19 09:38:31;;;;;;;30.25;3.25;;;;;;;;;;4866469;29;20487;-84
2021/12/19 09:41:11;;;;;;;31.08;3.80;;;;;;;;;;4853720;29;20559;-85
2021/12/19 09:43:44;;;;;;;23.15;3.10;;;;;;;;;;4851842;29;20452;-85
2021/12/19 09:46:15;;;;;;;25.17;4.00;;;;;;;;;;4863784;29;20457;-84
2021/12/19 09:48:42;;;;;;;30.10;4.18;;;;;;;;;;4852592;29;20028;-85
2021/12/19 09:51:09;;;;;;;23.98;4.38;;;;;;;;;;4868047;29;20041;-84
2021/12/19 09:53:36;;;;;;;31.10;3.97;;;;;;;;;;4869398;29;20687;-85
2021/12/19 09:56:02;;;;;;;39.22;4.80;;;;;;;;;;4842625;29;20510;-85
2021/12/19 09:58:31;;;;;;;29.17;4.47;;;;;;;;;;4847289;29;20053;-85
2021/12/19 10:00:57;;;;;;;37.58;4.65;;;;;;;;;;4831283;29;20066;-85
2021/12/19 10:03:23;;;;;;;29.98;3.50;;;;;;;;;;4840108;29;20553;-84
2021/12/19 10:05:49;;;;;;;35.63;4.07;;;;;;;;;;4843670;29;20049;-84
2021/12/19 10:08:23;;;;;;;26.10;3.53;;;;;;;;;;4834765;29;20037;-84
2021/12/19 10:10:59;;;;;;;34.22;4.40;;;;;;;;;;4845708;29;20068;-85
2021/12/19 10:13:33;;;;;;;17.02;3.20;;;;;;;;;;4830117;29;20386;-84
2021/12/19 10:15:59;;;;;;;23.63;5.00;;;;;;;;;;4851339;29;20037;-84
2021/12/19 10:18:25;;;;;;;22.58;2.97;;;;;;;;;;4831754;29;20041;-85
2021/12/19 10:20:59;;;;;;;20.42;3.75;;;;;;;;;;4837537;29;20186;-85
2021/12/19 10:23:37;;;;;;;18.02;2.55;;;;;;;;;;4852802;29;20077;-84
2021/12/19 10:26:07;;;;;;;27.20;3.33;;;;;;;;;;4850832;29;20528;-85
2021/12/19 10:28:34;;;;;;;15.50;2.15;;;;;;;;;;4847728;29;20190;-85
2021/12/19 10:31:01;;;;;;;28.63;3.38;;;;;;;;;;4835901;29;20045;-84
2021/12/19 10:33:28;;;;;;;18.05;3.38;;;;;;;;;;4831457;29;20089;-84
2021/12/19 10:35:56;;;;;;;21.98;3.92;;;;;;;;;;4832994;29;20057;-85
2021/12/19 10:38:23;;;;;;;14.93;2.80;;;;;;;;;;4833430;29;20089;-85
2021/12/19 10:40:54;;;;;;;16.98;2.85;;;;;;;;;;4849302;29;20040;-84
2021/12/19 10:43:21;;;;;;;14.68;3.22;;;;;;;;;;4848601;29;20049;-85
2021/12/19 10:45:51;;;;;;;22.60;3.15;;;;;;;;;;4832056;29;20540;-84
2021/12/19 10:48:21;;;;;;;10.75;2.55;;;;;;;;;;4832843;29;20026;-85
2021/12/19 10:50:58;;;;;;;18.52;3.38;;;;;;;;;;4833253;29;20641;-85
2021/12/19 10:53:35;;;;;;;24.90;4.03;;;;;;;;;;4834896;29;20042;-84
2021/12/19 10:56:02;;;;;;;33.60;4.38;;;;;;;;;;4851136;29;20038;-85
2021/12/19 10:58:31;;;;;;;20.17;1.85;;;;;;;;;;4837049;29;20053;-85
2021/12/19 11:01:03;;;;;;;21.33;2.10;;;;;;;;;;4850266;29;20509;-84
2021/12/19 11:03:50;;;;;;;15.93;2.90;;;;;;;;;;4852812;29;20040;-85
2021/12/19 11:06:16;;;;;;;;;;;;;;;;;;4837421;29;20045;-85
2021/12/19 11:08:43;;;;;;;33.70;3.85;;;;;;;;;;4837584;29;20361;-86
2021/12/19 11:11:10;;;;;;;17.73;3.10;;;;;;;;;;4852556;29;20522;-84
2021/12/19 11:13:36;;;;;;;12.48;2.92;;;;;;;;;;4851996;29;20088;-84
2021/12/19 11:16:02;;;;;;;16.17;3.28;;;;;;;;;;4837390;29;20029;-85
2021/12/19 11:18:29;;;;;;;22.83;3.85;;;;;;;;;;4855070;29;20041;-85
2021/12/19 11:20:54;;;;;;;23.20;3.22;;;;;;;;;;4840212;29;20036;-84
2021/12/19 11:23:21;;;;;;;17.90;3.00;;;;;;;;;;4853758;29;20036;-84
2021/12/19 11:25:47;;;;;;;23.67;3.05;;;;;;;;;;4851590;29;20037;-85
2021/12/19 11:28:14;;;;;;;30.60;3.33;;;;;;;;;;4845844;29;20041;-84
2021/12/19 11:30:40;;;;;;;28.65;3.38;;;;;;;;;;4849795;29;20037;-85
2021/12/19 11:33:18;;;;;;;16.05;2.70;;;;;;;;;;4839554;29;20378;-85
2021/12/19 11:35:46;;;;;;;26.50;4.28;;;;;;;;;;4834694;29;20458;-84
2021/12/19 11:38:14;;;;;;;21.75;3.38;;;;;;;;;;4834214;29;20121;-85
2021/12/19 11:40:40;;;;;;;18.02;3.55;;;;;;;;;;4854273;29;20125;-86
2021/12/19 11:43:08;;;;;;;21.10;3.72;;;;;;;;;;4852558;29;20534;-86
2021/12/19 11:48:24;;;;;;;16.10;3.55;;;;;;;;;;4853840;29;20053;-85
2021/12/19 11:50:50;;;;;;;15.80;3.97;;;;;;;;;;4857079;29;20030;-84
2021/12/19 11:53:16;;;;;;;23.98;4.05;;;;;;;;;;4836504;29;20402;-85
2021/12/19 11:56:06;;;;;;;40.28;4.13;;;;;;;;;;4838431;29;20085;-86
2021/12/19 11:58:55;;;;;;;30.05;4.75;;;;;;;;;;4858692;29;20102;-85
2021/12/19 12:01:25;;;;;;;20.92;3.00;;;;;;;;;;4854599;29;21309;-86
2021/12/19 12:03:53;;;;;;;21.90;3.70;;;;;;;;;;4868076;29;20044;-84
2021/12/19 12:06:23;;;;;;;20.52;3.22;;;;;;;;;;4854452;29;20041;-86
2021/12/19 12:09:08;;;;;;;23.60;4.10;;;;;;;;;;4856647;29;20044;-85
2021/12/19 12:11:36;;;;;;;33.45;3.85;;;;;;;;;;4866222;29;20315;-85
2021/12/19 12:14:20;;;;;;;23.10;3.70;;;;;;;;;;4855869;29;20051;-85
2021/12/19 12:16:55;;;;;;;42.55;5.93;;;;;;;;;;4871717;29;20561;-86
2021/12/19 12:19:38;;;;;;;9.93;2.20;;;;;;;;;;4855150;29;20095;-86
2021/12/19 12:22:27;;;;;;;20.58;4.20;;;;;;;;;;4859811;29;20064;-85
2021/12/19 12:25:12;;;;;;;18.23;3.47;;;;;;;;;;4853603;29;20051;-85
2021/12/19 12:27:47;;;;;;;27.67;4.63;;;;;;;;;;4852274;29;20052;-85
2021/12/19 12:30:13;;;;;;;40.53;4.18;;;;;;;;;;4855542;29;20029;-85
2021/12/19 12:32:40;;;;;;;35.92;4.28;;;;;;;;;;4856951;29;20044;-85
2021/12/19 12:35:07;;;;;;;36.33;4.55;;;;;;;;;;4857426;29;20163;-85
2021/12/19 12:37:34;;;;;;;29.98;3.58;;;;;;;;;;4853805;29;20037;-84
2021/12/19 12:40:17;;;;;;;21.50;3.47;;;;;;;;;;4867430;29;20041;-85
2021/12/19 12:43:15;;;;;;;25.08;3.05;;;;;;;;;;4857847;29;20089;-85
2021/12/19 12:45:49;;;;;;;21.05;3.70;;;;;;;;;;4842009;29;20048;-86
2021/12/19 12:48:34;;;;;;;22.83;3.15;;;;;;;;;;4870361;29;20509;-85
2021/12/19 12:51:02;;;;;;;27.98;3.80;;;;;;;;;;4867217;29;20890;-86
2021/12/19 12:53:29;;;;;;;27.27;3.38;;;;;;;;;;4854741;29;20045;-84
2021/12/19 12:56:03;;;;;;;38.58;3.55;;;;;;;;;;4854303;29;20082;-86
2021/12/19 12:58:34;;;;;;;19.85;3.28;;;;;;;;;;4849405;29;20044;-85
2021/12/19 13:01:22;;;;;;;29.90;3.25;;;;;;;;;;4839551;29;20089;-85
2021/12/19 13:04:08;;;;;;;15.55;3.22;;;;;;;;;;4850241;29;20033;-85
2021/12/19 13:06:35;;;;;;;20.60;2.90;;;;;;;;;;4847244;29;20034;-86
2021/12/19 13:09:13;;;;;;;20.40;3.75;;;;;;;;;;4853950;29;20396;-85
2021/12/19 13:11:39;;;;;;;17.85;3.08;;;;;;;;;;4851173;29;20632;-85
2021/12/19 13:14:14;;;;;;;29.05;3.25;;;;;;;;;;4839092;29;20040;-86
2021/12/19 13:16:41;;;;;;;40.03;6.63;;;;;;;;;;4848247;29;20046;-86
2021/12/19 13:19:07;;;;;;;28.00;3.45;;;;;;;;;;4835047;29;20029;-85
2021/12/19 13:21:52;;;;;;;25.40;3.28;;;;;;;;;;4834994;29;20078;-86
2021/12/19 13:24:24;;;;;;;29.05;4.20;;;;;;;;;;4836732;29;20037;-86
2021/12/19 13:27:03;;;;;;;20.08;3.10;;;;;;;;;;4852149;29;20419;-85
2021/12/19 13:29:29;;;;;;;19.73;3.58;;;;;;;;;;4848969;29;20407;-84
2021/12/19 13:31:56;;;;;;;19.23;3.65;;;;;;;;;;4851122;29;20414;-86
2021/12/19 13:34:22;;;;;;;17.30;3.03;;;;;;;;;;4833010;29;20034;-86
2021/12/19 13:37:04;;;;;;;18.00;2.58;;;;;;;;;;4838455;29;20557;-86
2021/12/19 13:39:30;;;;;;;28.20;4.13;;;;;;;;;;4836644;29;20141;-84
2021/12/19 13:42:05;;;;;;;28.10;3.20;;;;;;;;;;4835103;29;20109;-85
2021/12/19 13:44:32;;;;;;;22.98;3.53;;;;;;;;;;4851308;29;20076;-85
2021/12/19 13:46:59;;;;;;;18.00;2.90;;;;;;;;;;4834874;29;20546;-85
2021/12/19 13:49:25;;;;;;;23.55;3.13;;;;;;;;;;4835990;29;20037;-85
2021/12/19 13:51:53;;;;;;;29.05;3.65;;;;;;;;;;4833764;29;20041;-86
2021/12/19 13:54:27;;;;;;;26.80;4.13;;;;;;;;;;4839469;29;20088;-85
2021/12/19 13:56:53;;;;;;;25.30;3.65;;;;;;;;;;4839212;29;20049;-86
2021/12/19 13:59:20;;;;;;;18.95;3.92;;;;;;;;;;4854597;29;20085;-86
2021/12/19 14:01:46;;;;;;;25.52;2.92;;;;;;;;;;4837231;29;20048;-86
2021/12/19 14:04:15;;;;;;;17.63;3.45;;;;;;;;;;4837186;29;20473;-84
2021/12/19 14:06:42;;;;;;;23.10;3.88;;;;;;;;;;4835049;29;20061;-85
2021/12/19 14:09:11;;;;;;;25.45;3.20;;;;;;;;;;4831145;29;20037;-85
2021/12/19 14:11:43;;;;;;;31.20;4.18;;;;;;;;;;4843323;29;20060;-85
2021/12/19 14:14:28;;;;;;;20.38;3.00;;;;;;;;;;4852537;29;20085;-85
2021/12/19 14:17:04;;;;;;;13.23;2.42;;;;;;;;;;4851530;29;20598;-86
2021/12/19 14:19:34;;;;;;;22.10;2.25;;;;;;;;;;4833495;29;20065;-85
2021/12/19 14:22:04;;;;;;;30.98;3.22;;;;;;;;;;4834090;29;20037;-85
2021/12/19 14:24:53;;;;;;;15.23;3.13;;;;;;;;;;4851988;29;20660;-86
2021/12/19 14:27:19;;;;;;;20.13;2.28;;;;;;;;;;4833324;29;20101;-86
2021/12/19 14:29:48;;;;;;;17.13;2.67;;;;;;;;;;4854614;29;20026;-86
2021/12/19 14:32:20;;;;;;;14.77;2.10;;;;;;;;;;4854680;29;20082;-86
2021/12/19 14:34:49;;;;;;;12.27;2.05;;;;;;;;;;4835667;29;20678;-85
2021/12/19 14:37:20;;;;;;;20.30;2.40;;;;;;;;;;4838266;29;20029;-87
2021/12/19 14:39:57;;;;;;;16.75;1.90;;;;;;;;;;4840071;29;20069;-85
2021/12/19 14:42:28;;;;;;;11.02;1.80;;;;;;;;;;4856871;29;20518;-85
2021/12/19 14:45:04;;;;;;;6.15;2.05;;;;;;;;;;4839483;29;20080;-86
2021/12/19 14:47:35;;;;;;;22.52;2.30;;;;;;;;;;4859192;29;20033;-85
2021/12/19 14:50:09;;;;;;;8.68;1.65;;;;;;;;;;4832962;29;20395;-84
2021/12/19 14:52:35;;;;;;;16.48;1.92;;;;;;;;;;4854396;29;20487;-86
2021/12/19 14:55:09;;;;;;;8.43;2.05;;;;;;;;;;4840392;29;20606;-86
2021/12/19 14:57:35;;;;;;;11.48;1.38;;;;;;;;;;4840991;29;20064;-84
2021/12/19 15:00:01;;;;;;;9.82;1.60;;;;;;;;;;4841104;29;20030;-86
2021/12/19 15:02:28;;;;;;;9.52;1.58;;;;;;;;;;4836800;29;20033;-85
2021/12/19 15:04:55;;;;;;;9.93;1.95;;;;;;;;;;4835566;29;20049;-85
2021/12/19 15:07:25;;;;;;;12.57;2.45;;;;;;;;;;4840060;29;20037;-86
2021/12/19 15:09:51;;;;;;;9.93;1.92;;;;;;;;;;4855466;29;20026;-86
2021/12/19 15:12:17;;;;;;;4.97;1.50;;;;;;;;;;4835725;29;20144;-85
2021/12/19 15:14:43;;;;;;;6.32;1.23;;;;;;;;;;4850871;29;20038;-85
2021/12/19 15:17:09;;;;;;;8.30;1.63;;;;;;;;;;4837266;29;20037;-85
2021/12/19 15:19:35;;;;;;;8.80;1.40;;;;;;;;;;4849841;29;20611;-86
2021/12/19 15:22:01;;;;;;;9.05;1.20;;;;;;;;;;4839977;29;20531;-85
2021/12/19 15:24:27;;;;;;;14.73;1.90;;;;;;;;;;4851091;29;20053;-86
2021/12/19 15:26:53;;;;;;;12.55;2.42;;;;;;;;;;4853371;29;20161;-86
2021/12/19 15:29:20;;;;;;;7.15;1.63;;;;;;;;;;4835245;29;20071;-86
2021/12/19 15:31:46;;;;;;;10.77;1.35;;;;;;;;;;4834348;29;20029;-85
2021/12/19 15:34:12;;;;;;;13.52;1.23;;;;;;;;;;4836364;29;20041;-86
2021/12/19 15:36:39;;;;;;;18.95;1.85;;;;;;;;;;4835899;29;20033;-86
2021/12/19 15:39:06;;;;;;;9.48;1.65;;;;;;;;;;4847251;29;20478;-86
2021/12/19 15:41:33;;;;;;;12.27;3.03;;;;;;;;;;4849190;29;20092;-85